Time;durP1;ratioP1;P1;durP2;ratioP2;P2;SDS_P1;SDS_P2;PMS_P1;PMS_P2;Temp;Humidity;BMP_temperature;BMP_pressure;BME280_temperature;BME280_humidity;BME280_pressure;Samples;Min_cycle;Max_cycle;Signal;HPM_P1;HPM_P2
2023/09/28 00:02:52;;;;;;;44.05;25.08;;;13.30;94.50;;;;;;4956248;29;20038;-86
2023/09/28 00:05:21;;;;;;;42.50;24.20;;;13.30;94.60;;;;;;4955303;29;20415;-85
2023/09/28 00:07:49;;;;;;;46.65;25.17;;;13.30;94.70;;;;;;4953405;29;20035;-85
2023/09/28 00:10:16;;;;;;;46.13;24.08;;;13.30;94.80;;;;;;4937337;29;20031;-83
2023/09/28 00:12:46;;;;;;;36.22;24.70;;;13.30;94.90;;;;;;4937269;29;20027;-85
2023/09/28 00:15:15;;;;;;;44.47;25.17;;;13.20;95.00;;;;;;4955178;29;20031;-85
2023/09/28 00:17:41;;;;;;;41.05;26.08;;;13.20;95.00;;;;;;4936823;29;20119;-85
2023/09/28 00:20:13;;;;;;;39.47;24.52;;;13.20;95.00;;;;;;4937170;29;20116;-85
2023/09/28 00:22:41;;;;;;;41.25;23.08;;;13.20;95.10;;;;;;4955208;29;20016;-85
2023/09/28 00:25:11;;;;;;;39.58;23.73;;;13.30;95.20;;;;;;4958670;29;20023;-86
2023/09/28 00:27:45;;;;;;;38.30;23.23;;;13.30;95.00;;;;;;4956439;29;20069;-86
2023/09/28 00:30:14;;;;;;;33.55;20.48;;;13.30;95.00;;;;;;4954796;28;20047;-85
2023/09/28 00:32:42;;;;;;;36.30;22.23;;;13.30;94.90;;;;;;4956221;29;20105;-85
2023/09/28 00:35:08;;;;;;;38.22;22.05;;;13.40;94.90;;;;;;4955706;29;20027;-88
2023/09/28 00:37:34;;;;;;;38.92;23.17;;;13.40;94.90;;;;;;4957349;29;20027;-86
2023/09/28 00:40:01;;;;;;;43.35;23.88;;;13.40;94.80;;;;;;4960716;29;20022;-86
2023/09/28 00:42:29;;;;;;;41.75;24.15;;;13.40;94.80;;;;;;4948552;29;20608;-87
2023/09/28 00:44:55;;;;;;;39.25;23.95;;;13.50;94.80;;;;;;4937426;29;20034;-86
2023/09/28 00:47:23;;;;;;;42.65;23.63;;;13.40;94.80;;;;;;4952960;28;20023;-85
2023/09/28 00:49:50;;;;;;;47.65;24.45;;;13.40;95.00;;;;;;4965823;28;20430;-87
2023/09/28 00:52:17;;;;;;;30.23;17.50;;;13.30;95.00;;;;;;4953252;29;20094;-87
2023/09/28 00:54:49;;;;;;;40.67;24.17;;;13.30;95.00;;;;;;4958063;28;20122;-86
2023/09/28 00:57:16;;;;;;;41.88;25.02;;;13.30;95.00;;;;;;4954952;29;20106;-86
2023/09/28 00:59:42;;;;;;;39.47;23.80;;;13.30;94.90;;;;;;4956492;29;20027;-86
2023/09/28 01:02:10;;;;;;;37.92;22.88;;;13.30;94.90;;;;;;4938192;29;20032;-84
2023/09/28 01:04:36;;;;;;;37.95;22.30;;;13.20;95.30;;;;;;4960624;29;20134;-84
2023/09/28 01:07:02;;;;;;;33.58;22.05;;;13.20;95.20;;;;;;4944966;29;20047;-87
2023/09/28 01:09:29;;;;;;;39.83;22.55;;;13.10;95.30;;;;;;4945572;29;20031;-85
2023/09/28 01:11:55;;;;;;;38.58;23.05;;;13.10;95.30;;;;;;4965761;29;20030;-86
2023/09/28 01:14:22;;;;;;;37.97;21.63;;;13.10;95.30;;;;;;4957159;29;20031;-86
2023/09/28 01:16:48;;;;;;;38.03;22.38;;;13.10;95.30;;;;;;4968462;28;20032;-85
2023/09/28 01:19:14;;;;;;;38.05;22.17;;;13.00;95.50;;;;;;4954062;29;20497;-84
2023/09/28 01:21:40;;;;;;;29.83;19.98;;;13.00;95.60;;;;;;4936661;29;20038;-84
2023/09/28 01:24:06;;;;;;;24.88;14.52;;;13.00;95.70;;;;;;4953773;29;20098;-84
2023/09/28 01:26:34;;;;;;;17.45;10.48;;;13.00;95.60;;;;;;4953283;29;20493;-84
2023/09/28 01:29:00;;;;;;;16.65;11.82;;;13.00;95.30;;;;;;4936247;29;20036;-86
2023/09/28 01:31:27;;;;;;;18.88;11.40;;;13.10;95.10;;;;;;4936625;29;20039;-87
2023/09/28 01:33:54;;;;;;;20.55;11.75;;;13.10;94.90;;;;;;4954166;29;20468;-87
2023/09/28 01:36:20;;;;;;;17.13;9.82;;;13.10;94.80;;;;;;4933475;29;20090;-87
2023/09/28 01:39:01;;;;;;;13.15;10.20;;;13.10;94.60;;;;;;4936426;29;20114;-86
2023/09/28 01:41:27;;;;;;;14.82;10.40;;;13.10;94.50;;;;;;4954846;28;20063;-87
2023/09/28 01:43:52;;;;;;;15.90;11.40;;;13.10;94.50;;;;;;4958111;29;20058;-88
2023/09/28 01:46:18;;;;;;;15.40;10.73;;;13.10;94.60;;;;;;4960091;29;20027;-87
2023/09/28 01:48:44;;;;;;;17.75;11.50;;;13.10;94.90;;;;;;4963175;29;20050;-87
2023/09/28 01:51:10;;;;;;;14.63;11.32;;;13.10;94.70;;;;;;4962357;29;20023;-86
2023/09/28 01:53:35;;;;;;;18.23;11.00;;;13.10;94.70;;;;;;4951768;29;20035;-86
2023/09/28 01:56:02;;;;;;;15.10;10.25;;;13.10;94.70;;;;;;4947371;29;20113;-88
2023/09/28 01:58:29;;;;;;;16.83;10.85;;;13.00;94.70;;;;;;4955621;28;20428;-87
2023/09/28 02:00:56;;;;;;;17.98;10.85;;;13.00;94.70;;;;;;4957833;29;20027;-88
2023/09/28 02:03:22;;;;;;;14.87;10.87;;;13.00;94.70;;;;;;4908044;29;20032;-88
2023/09/28 02:05:49;;;;;;;12.75;10.55;;;13.00;94.80;;;;;;4899426;29;20044;-89
2023/09/28 02:08:15;;;;;;;14.77;9.30;;;12.90;94.80;;;;;;4918657;29;20032;-89
2023/09/28 02:10:42;;;;;;;15.75;8.82;;;13.00;94.80;;;;;;4902884;29;20069;-87
2023/09/28 02:13:08;;;;;;;17.90;8.97;;;12.90;94.80;;;;;;4919770;29;20554;-87
2023/09/28 02:15:33;;;;;;;15.65;9.82;;;13.00;94.90;;;;;;4927868;29;20044;-86
2023/09/28 02:17:59;;;;;;;11.98;8.55;;;13.00;94.90;;;;;;4909802;29;20040;-86
2023/09/28 02:20:25;;;;;;;12.98;7.97;;;13.00;94.80;;;;;;4916890;29;20028;-85
2023/09/28 02:22:54;;;;;;;16.25;8.95;;;13.00;94.80;;;;;;4929627;29;20036;-84
2023/09/28 02:25:22;;;;;;;18.55;10.63;;;13.00;94.90;;;;;;4932348;29;20039;-84
2023/09/28 02:27:50;;;;;;;13.35;10.13;;;13.00;95.00;;;;;;4916080;29;20051;-86
2023/09/28 02:30:19;;;;;;;16.63;9.85;;;13.00;95.10;;;;;;4916454;29;20052;-86
2023/09/28 02:32:46;;;;;;;14.15;8.45;;;13.00;95.00;;;;;;4916220;29;20035;-85
2023/09/28 02:35:16;;;;;;;15.73;9.98;;;13.00;94.90;;;;;;4943968;28;20519;-85
2023/09/28 02:37:44;;;;;;;13.82;9.65;;;12.90;94.90;;;;;;4956797;29;20163;-85
2023/09/28 02:40:11;;;;;;;11.93;8.40;;;12.90;95.00;;;;;;4959118;29;20023;-84
2023/09/28 02:42:37;;;;;;;13.77;9.13;;;12.90;95.10;;;;;;4956934;29;20027;-85
2023/09/28 02:45:11;;;;;;;14.57;9.43;;;12.90;95.00;;;;;;4956599;29;20020;-85
2023/09/28 02:47:44;;;;;;;15.15;8.93;;;12.90;95.10;;;;;;4957203;28;20026;-85
2023/09/28 02:50:11;;;;;;;15.40;9.10;;;12.80;95.00;;;;;;4956824;28;20358;-85
2023/09/28 02:52:42;;;;;;;12.77;8.63;;;12.80;95.00;;;;;;4970558;28;20043;-84
2023/09/28 02:55:10;;;;;;;16.48;9.80;;;12.80;95.10;;;;;;4954454;29;20488;-86
2023/09/28 02:57:36;;;;;;;14.27;8.63;;;12.80;95.10;;;;;;4955324;29;20023;-85
2023/09/28 03:00:12;;;;;;;12.57;8.90;;;12.80;95.20;;;;;;4958323;29;20027;-85
2023/09/28 03:02:38;;;;;;;10.98;8.05;;;12.80;95.10;;;;;;4971816;28;20019;-85
2023/09/28 03:05:04;;;;;;;19.52;9.88;;;12.80;95.10;;;;;;4961592;29;20028;-85
2023/09/28 03:07:31;;;;;;;15.05;8.52;;;12.70;95.00;;;;;;4953505;29;20126;-85
2023/09/28 03:09:57;;;;;;;11.93;8.98;;;12.70;95.10;;;;;;4952535;29;20007;-85
2023/09/28 03:12:22;;;;;;;12.57;8.68;;;12.70;95.10;;;;;;4961961;29;20031;-87
2023/09/28 03:14:48;;;;;;;13.55;9.05;;;12.70;95.00;;;;;;4939331;29;20481;-88
2023/09/28 03:17:14;;;;;;;15.27;8.20;;;12.70;95.10;;;;;;4938899;29;20035;-85
2023/09/28 03:19:40;;;;;;;11.65;8.63;;;12.70;95.10;;;;;;4955812;29;20102;-87
2023/09/28 03:22:06;;;;;;;19.70;9.35;;;12.70;95.10;;;;;;4955077;29;20038;-87
2023/09/28 03:24:31;;;;;;;22.88;10.35;;;12.70;95.20;;;;;;4956178;29;20098;-87
2023/09/28 03:26:57;;;;;;;40.80;12.35;;;12.70;95.10;;;;;;4930789;29;20511;-87
2023/09/28 03:29:23;;;;;;;43.63;12.55;;;12.70;95.10;;;;;;4951450;28;20097;-87
2023/09/28 03:31:49;;;;;;;47.65;13.65;;;12.70;95.10;;;;;;4939334;29;20083;-85
2023/09/28 03:34:15;;;;;;;11.95;8.95;;;12.80;95.00;;;;;;4939923;29;20055;-85
2023/09/28 03:36:42;;;;;;;14.98;9.50;;;12.80;94.90;;;;;;4943004;29;20038;-85
2023/09/28 03:39:08;;;;;;;14.35;8.18;;;12.80;94.90;;;;;;4964163;29;20362;-83
2023/09/28 03:41:34;;;;;;;20.02;9.10;;;12.80;94.80;;;;;;4956945;28;20110;-88
2023/09/28 03:44:00;;;;;;;19.77;9.55;;;12.80;94.80;;;;;;4956772;29;20477;-86
2023/09/28 03:46:27;;;;;;;18.65;9.82;;;12.80;94.80;;;;;;4955656;29;20019;-86
2023/09/28 03:48:53;;;;;;;14.07;7.93;;;12.80;94.80;;;;;;4940797;29;20027;-86
2023/09/28 03:51:18;;;;;;;13.27;7.80;;;12.80;94.80;;;;;;4964823;28;20037;-85
2023/09/28 03:53:47;;;;;;;13.68;8.07;;;12.80;94.70;;;;;;4962459;29;20035;-89
2023/09/28 03:56:13;;;;;;;14.07;7.53;;;12.90;94.50;;;;;;4969851;29;20050;-89
2023/09/28 03:58:39;;;;;;;14.50;7.70;;;12.90;94.30;;;;;;4969031;28;20025;-88
2023/09/28 04:01:07;;;;;;;12.32;7.57;;;13.00;94.40;;;;;;4984038;28;20019;-85
2023/09/28 04:03:35;;;;;;;10.23;7.38;;;13.00;94.20;;;;;;4971646;28;20035;-85
2023/09/28 04:06:01;;;;;;;10.90;7.35;;;13.10;94.20;;;;;;4971294;29;20023;-86
2023/09/28 04:08:27;;;;;;;12.80;9.00;;;13.10;94.10;;;;;;4963291;28;20020;-88
2023/09/28 04:10:55;;;;;;;16.30;9.00;;;13.10;94.10;;;;;;4936883;29;20057;-86
2023/09/28 04:13:21;;;;;;;15.48;8.43;;;13.20;94.00;;;;;;4938814;29;20027;-86
2023/09/28 04:15:50;;;;;;;13.35;7.95;;;13.20;93.90;;;;;;4943242;29;20099;-86
2023/09/28 04:18:16;;;;;;;9.98;7.18;;;13.20;93.80;;;;;;4954913;29;20035;-87
2023/09/28 04:20:42;;;;;;;17.63;9.38;;;13.20;93.80;;;;;;4956134;29;20034;-86
2023/09/28 04:23:08;;;;;;;14.90;7.30;;;13.30;93.80;;;;;;4955906;29;20047;-85
2023/09/28 04:25:35;;;;;;;15.43;7.05;;;13.30;93.80;;;;;;4957202;29;20035;-86
2023/09/28 04:28:01;;;;;;;14.43;8.18;;;13.30;93.80;;;;;;4956347;29;20070;-84
2023/09/28 04:30:27;;;;;;;10.75;8.10;;;13.40;93.80;;;;;;4942559;29;20069;-87
2023/09/28 04:32:54;;;;;;;12.65;8.60;;;13.40;93.80;;;;;;4955732;29;20023;-86
2023/09/28 04:35:20;;;;;;;16.02;8.27;;;13.50;93.70;;;;;;4936191;29;20039;-86
2023/09/28 04:37:47;;;;;;;14.02;8.45;;;13.50;93.60;;;;;;4932498;29;20083;-87
2023/09/28 04:40:13;;;;;;;15.68;9.43;;;13.60;93.50;;;;;;4938764;29;20019;-87
2023/09/28 04:42:40;;;;;;;14.93;8.43;;;13.60;93.30;;;;;;4957653;29;20031;-84
2023/09/28 04:45:07;;;;;;;13.83;8.60;;;13.60;93.30;;;;;;4955783;29;20027;-86
2023/09/28 04:47:33;;;;;;;15.55;8.50;;;13.60;93.40;;;;;;4940654;29;20560;-88
2023/09/28 04:50:04;;;;;;;11.75;7.45;;;13.60;93.30;;;;;;4961531;29;20039;-90
2023/09/28 04:52:30;;;;;;;12.98;7.68;;;13.70;93.30;;;;;;4947517;29;20061;-87
2023/09/28 04:54:57;;;;;;;9.73;7.55;;;13.80;93.30;;;;;;4973917;29;20020;-86
2023/09/28 04:57:24;;;;;;;13.90;7.90;;;13.80;93.00;;;;;;4953085;29;20108;-84
2023/09/28 04:59:50;;;;;;;14.10;7.95;;;13.80;92.90;;;;;;4955142;29;20027;-85
2023/09/28 05:02:17;;;;;;;12.27;8.60;;;13.90;92.80;;;;;;4954681;29;20031;-84
2023/09/28 05:04:42;;;;;;;14.65;8.82;;;13.90;92.60;;;;;;4963204;28;20027;-84
2023/09/28 05:07:08;;;;;;;11.63;8.23;;;14.00;92.50;;;;;;4953674;29;20027;-85
2023/09/28 05:09:35;;;;;;;12.98;9.13;;;14.00;92.40;;;;;;4955906;29;20027;-85
2023/09/28 05:12:01;;;;;;;11.88;8.25;;;14.10;92.50;;;;;;4942024;29;20038;-84
2023/09/28 05:14:27;;;;;;;11.30;8.60;;;14.20;92.50;;;;;;4961037;28;20023;-85
2023/09/28 05:16:54;;;;;;;14.52;9.27;;;14.30;92.50;;;;;;4945957;29;20046;-85
2023/09/28 05:19:21;;;;;;;16.57;9.20;;;14.40;92.30;;;;;;4947613;29;20043;-86
2023/09/28 05:21:47;;;;;;;16.58;9.27;;;14.50;92.30;;;;;;4964225;29;20027;-85
2023/09/28 05:24:13;;;;;;;18.98;8.70;;;14.60;92.10;;;;;;4950986;29;20453;-86
2023/09/28 05:26:39;;;;;;;15.18;8.80;;;14.70;91.90;;;;;;4976273;29;20078;-86
2023/09/28 05:29:05;;;;;;;18.95;10.35;;;14.70;91.80;;;;;;4963162;28;20027;-86
2023/09/28 05:31:32;;;;;;;12.88;8.68;;;14.80;91.60;;;;;;4961491;29;20031;-89
2023/09/28 05:33:58;;;;;;;17.42;9.75;;;14.90;91.40;;;;;;4962900;29;20054;-87
2023/09/28 05:36:24;;;;;;;19.63;9.38;;;14.90;91.30;;;;;;4944205;29;20047;-87
2023/09/28 05:38:51;;;;;;;30.52;11.20;;;15.00;91.20;;;;;;4967600;28;20040;-90
2023/09/28 05:41:16;;;;;;;55.13;13.20;;;15.10;91.10;;;;;;4956003;29;20012;-91
2023/09/28 05:43:43;;;;;;;16.15;8.43;;;15.10;91.00;;;;;;4954683;29;20055;-89
2023/09/28 05:46:09;;;;;;;35.78;15.05;;;15.20;90.70;;;;;;4955361;29;20028;-88
2023/09/28 05:48:36;;;;;;;17.83;10.38;;;15.30;90.50;;;;;;4974999;28;20125;-86
2023/09/28 05:51:01;;;;;;;60.42;17.83;;;15.40;90.30;;;;;;4973293;29;20078;-89
2023/09/28 05:53:28;;;;;;;24.77;10.93;;;15.50;90.30;;;;;;4957466;29;20024;-88
2023/09/28 05:55:55;;;;;;;35.03;12.60;;;15.60;90.10;;;;;;4952109;29;20131;-88
2023/09/28 05:58:21;;;;;;;11.77;9.43;;;15.60;90.10;;;;;;4946307;29;20042;-87
2023/09/28 06:00:50;;;;;;;14.70;9.80;;;15.60;89.70;;;;;;4950691;29;20051;-87
2023/09/28 06:03:16;;;;;;;13.55;9.10;;;15.60;89.40;;;;;;4953316;29;20042;-88
2023/09/28 06:05:41;;;;;;;17.80;8.25;;;15.70;89.40;;;;;;4973155;28;20051;-88
2023/09/28 06:08:07;;;;;;;12.48;8.20;;;15.70;89.20;;;;;;4968121;28;20020;-86
2023/09/28 06:10:33;;;;;;;17.05;8.65;;;15.80;88.90;;;;;;4957409;29;20126;-88
2023/09/28 06:13:01;;;;;;;14.75;8.48;;;15.80;88.60;;;;;;4956343;29;20027;-88
2023/09/28 06:15:26;;;;;;;;;;;15.90;88.60;;;;;;4949686;29;20468;-89
2023/09/28 06:17:52;;;;;;;84.20;20.23;;;16.00;88.70;;;;;;4956297;29;19906;-88
2023/09/28 06:20:18;;;;;;;18.65;9.23;;;16.00;88.90;;;;;;4955479;29;20437;-88
2023/09/28 06:22:44;;;;;;;22.55;10.05;;;16.10;88.40;;;;;;4970739;29;20074;-88
2023/09/28 06:25:10;;;;;;;16.70;8.02;;;16.20;87.90;;;;;;4965890;29;20131;-87
2023/09/28 06:27:37;;;;;;;13.25;8.43;;;16.20;87.30;;;;;;4946950;29;20031;-87
2023/09/28 06:30:03;;;;;;;19.93;10.53;;;16.30;87.20;;;;;;4952571;29;20043;-88
2023/09/28 06:32:29;;;;;;;15.43;8.30;;;16.30;87.10;;;;;;4961452;29;20027;-90
2023/09/28 06:34:55;;;;;;;17.33;8.82;;;16.40;87.00;;;;;;4963866;28;20039;-89
2023/09/28 06:37:21;;;;;;;15.98;8.60;;;16.40;87.00;;;;;;4946842;29;20082;-89
2023/09/28 06:39:47;;;;;;;41.40;13.25;;;16.50;86.90;;;;;;4976193;28;20035;-88
2023/09/28 06:42:13;;;;;;;19.27;8.38;;;16.60;86.60;;;;;;4952325;29;20019;-89
2023/09/28 06:44:39;;;;;;;17.90;8.27;;;16.70;86.10;;;;;;4964207;29;20083;-92
2023/09/28 06:47:05;;;;;;;14.32;8.85;;;16.80;85.10;;;;;;4945782;29;20113;-89
2023/09/28 06:49:34;;;;;;;12.73;6.90;;;16.90;84.90;;;;;;4964132;29;20027;-89
2023/09/28 06:51:59;;;;;;;24.45;8.65;;;17.00;84.60;;;;;;4964728;28;20063;-87
2023/09/28 06:54:25;;;;;;;10.20;7.28;;;17.10;84.40;;;;;;4965231;28;20039;-91
2023/09/28 06:56:51;;;;;;;17.92;7.68;;;17.20;83.70;;;;;;4949449;29;20035;-90
2023/09/28 06:59:20;;;;;;;14.77;9.27;;;17.30;83.50;;;;;;4970546;29;20023;-91
2023/09/28 07:01:46;;;;;;;11.50;7.00;;;17.40;82.90;;;;;;4975002;28;20071;-89
2023/09/28 07:04:12;;;;;;;8.68;7.28;;;17.50;82.00;;;;;;4975060;28;20027;-90
2023/09/28 07:06:38;;;;;;;13.57;8.55;;;17.50;81.50;;;;;;4972813;29;20027;-88
2023/09/28 07:09:05;;;;;;;14.07;7.60;;;17.70;81.60;;;;;;4951565;28;20047;-89
2023/09/28 07:11:32;;;;;;;11.93;7.50;;;17.80;81.30;;;;;;4950745;29;20082;-89
2023/09/28 07:13:58;;;;;;;14.77;7.22;;;17.90;80.90;;;;;;4967940;29;20029;-90
2023/09/28 07:16:23;;;;;;;11.07;5.90;;;18.10;80.30;;;;;;4985358;28;20631;-88
2023/09/28 07:18:49;;;;;;;21.08;10.15;;;18.20;79.30;;;;;;4958373;29;20038;-89
2023/09/28 07:21:15;;;;;;;10.68;6.25;;;19.10;79.50;;;;;;4970700;29;20031;-89
2023/09/28 07:23:43;;;;;;;16.10;7.40;;;20.70;75.90;;;;;;4964965;29;20118;-90
2023/09/28 07:26:16;;;;;;;13.23;6.82;;;22.50;70.90;;;;;;4965385;28;20160;-89
2023/09/28 07:28:45;;;;;;;22.30;7.70;;;24.90;66.20;;;;;;4959808;29;20079;-90
2023/09/28 07:31:13;;;;;;;21.70;7.78;;;25.90;60.70;;;;;;4961899;28;20126;-89
2023/09/28 07:33:40;;;;;;;21.08;6.85;;;28.30;58.20;;;;;;4971045;28;20027;-89
2023/09/28 07:36:07;;;;;;;107.35;15.95;;;28.30;53.90;;;;;;4944399;29;20039;-89
2023/09/28 07:38:33;;;;;;;11.55;5.65;;;29.00;51.20;;;;;;4950659;28;20027;-87
2023/09/28 07:41:00;;;;;;;20.17;11.20;;;29.30;49.50;;;;;;4941049;29;20170;-87
2023/09/28 07:43:26;;;;;;;13.48;7.18;;;29.20;49.10;;;;;;4958928;29;20023;-88
2023/09/28 07:45:52;;;;;;;96.50;21.00;;;29.20;48.50;;;;;;4944384;29;20031;-89
2023/09/28 07:48:18;;;;;;;10.80;5.68;;;29.50;48.30;;;;;;4942361;29;20034;-91
2023/09/28 07:50:43;;;;;;;33.47;7.77;;;29.90;47.30;;;;;;4943719;29;20039;-89
2023/09/28 07:53:09;;;;;;;14.07;5.87;;;30.20;46.80;;;;;;4959304;29;20042;-89
2023/09/28 07:55:35;;;;;;;24.13;8.30;;;30.60;46.20;;;;;;4960914;29;20027;-91
2023/09/28 07:58:01;;;;;;;13.07;6.30;;;30.90;45.30;;;;;;4959700;29;20035;-90
2023/09/28 08:00:27;;;;;;;9.77;5.67;;;31.30;44.60;;;;;;4960294;29;20039;-90
2023/09/28 08:02:53;;;;;;;110.45;23.88;;;31.30;43.90;;;;;;4962769;29;20066;-88
2023/09/28 08:05:21;;;;;;;139.77;31.05;;;31.30;44.20;;;;;;4933013;29;20102;-89
2023/09/28 08:07:47;;;;;;;414.90;80.75;;;31.30;43.70;;;;;;4955528;28;20031;-88
2023/09/28 08:10:23;;;;;;;54.65;14.68;;;31.40;44.00;;;;;;4951550;29;20024;-90
2023/09/28 08:12:49;;;;;;;140.77;31.02;;;31.80;43.10;;;;;;4962444;29;20023;-91
2023/09/28 08:15:15;;;;;;;7.50;4.93;;;32.30;42.70;;;;;;4959517;29;20119;-90
2023/09/28 08:17:44;;;;;;;13.57;6.18;;;32.80;42.40;;;;;;4958394;28;20090;-91
2023/09/28 08:20:10;;;;;;;171.88;39.35;;;33.10;41.40;;;;;;4950182;29;20015;-90
2023/09/28 08:22:36;;;;;;;10.80;5.40;;;33.70;41.00;;;;;;4936710;29;20115;-91
2023/09/28 08:25:07;;;;;;;343.03;75.93;;;34.10;40.20;;;;;;4960697;29;20023;-89
2023/09/28 08:27:33;;;;;;;12.32;6.38;;;34.30;39.90;;;;;;4959865;28;20046;-91
2023/09/28 08:30:01;;;;;;;29.63;8.32;;;34.60;39.30;;;;;;4944433;29;20122;-90
2023/09/28 08:32:27;;;;;;;12.25;4.85;;;;;;;;;;4942046;29;20038;-90
2023/09/28 08:34:53;;;;;;;17.80;5.82;;;;;;;;;;4984250;28;20028;-89
2023/09/28 08:37:19;;;;;;;69.13;14.30;;;34.60;39.20;;;;;;4969202;29;20023;-90
2023/09/28 08:39:45;;;;;;;10.15;3.63;;;35.50;38.00;;;;;;4960998;29;20027;-87
2023/09/28 08:42:15;;;;;;;29.48;7.75;;;35.80;37.90;;;;;;4956018;29;20385;-90
2023/09/28 08:44:41;;;;;;;21.35;6.20;;;35.10;37.70;;;;;;4942739;29;20067;-87
2023/09/28 08:47:16;;;;;;;16.05;11.23;;;35.00;37.80;;;;;;4972288;29;20023;-89
2023/09/28 08:49:46;;;;;;;21.17;5.95;;;35.00;38.10;;;;;;4945950;29;20023;-87
2023/09/28 08:52:15;;;;;;;10.60;5.13;;;35.10;37.60;;;;;;4960086;29;20079;-88
2023/09/28 08:54:42;;;;;;;7.65;4.57;;;35.30;37.50;;;;;;4959034;29;20483;-91
2023/09/28 08:57:09;;;;;;;7.20;5.15;;;35.40;37.40;;;;;;4958178;29;20046;-89
2023/09/28 08:59:37;;;;;;;6.22;3.80;;;35.80;37.20;;;;;;4972312;28;20031;-91
2023/09/28 09:02:05;;;;;;;18.75;6.68;;;36.10;36.30;;;;;;4973192;28;20393;-89
2023/09/28 09:04:38;;;;;;;8.48;4.93;;;35.90;36.50;;;;;;4945333;29;20059;-89
2023/09/28 09:07:04;;;;;;;30.80;6.85;;;35.80;36.40;;;;;;4957317;28;20035;-89
2023/09/28 09:09:33;;;;;;;46.50;11.82;;;35.60;36.50;;;;;;4952847;29;20464;-89
2023/09/28 09:12:03;;;;;;;44.30;13.32;;;35.70;36.60;;;;;;4951227;29;20039;-89
2023/09/28 09:14:29;;;;;;;27.50;7.20;;;36.00;36.50;;;;;;4940280;29;20393;-92
2023/09/28 09:16:55;;;;;;;19.27;5.97;;;36.40;36.00;;;;;;4958655;29;20039;-89
2023/09/28 09:19:21;;;;;;;23.83;8.25;;;36.50;35.90;;;;;;4929044;29;20032;-89
2023/09/28 09:21:49;;;;;;;148.07;33.45;;;36.60;35.90;;;;;;4970987;28;20031;-85
2023/09/28 09:24:18;;;;;;;36.53;10.02;;;36.80;35.50;;;;;;4964854;29;20023;-90
2023/09/28 09:26:45;;;;;;;4.70;3.28;;;36.90;35.40;;;;;;4974833;28;20059;-91
2023/09/28 09:29:14;;;;;;;17.50;5.20;;;36.60;35.20;;;;;;4954171;29;20023;-90
2023/09/28 09:31:45;;;;;;;40.70;11.50;;;36.20;35.40;;;;;;4952936;29;20024;-92
2023/09/28 09:34:13;;;;;;;141.50;25.60;;;35.70;35.80;;;;;;4910283;29;20039;-91
2023/09/28 09:36:43;;;;;;;8.18;4.30;;;36.00;36.30;;;;;;4921457;29;20095;-89
2023/09/28 09:39:21;;;;;;;75.30;18.42;;;36.30;35.80;;;;;;4941711;29;20024;-90
2023/09/28 09:41:49;;;;;;;242.60;59.22;;;36.00;36.00;;;;;;4941694;29;20020;-90
2023/09/28 09:44:18;;;;;;;14.20;5.68;;;35.70;36.20;;;;;;4940036;29;20032;-90
2023/09/28 09:46:49;;;;;;;17.20;6.85;;;35.20;36.20;;;;;;4923477;29;20035;-89
2023/09/28 09:49:18;;;;;;;16.65;6.22;;;34.70;36.90;;;;;;4946521;29;20035;-91
2023/09/28 09:51:48;;;;;;;9.52;4.35;;;34.80;37.10;;;;;;4921685;29;20078;-89
2023/09/28 09:54:18;;;;;;;9.13;4.00;;;35.40;36.70;;;;;;4935661;29;20059;-92
2023/09/28 09:56:48;;;;;;;4.43;3.50;;;35.90;36.10;;;;;;4921796;29;20062;-90
2023/09/28 09:59:16;;;;;;;5.90;3.55;;;36.10;35.60;;;;;;4938645;29;20047;-89
2023/09/28 10:01:48;;;;;;;7.35;6.20;;;35.50;35.70;;;;;;4946649;29;20028;-89
2023/09/28 10:04:18;;;;;;;5.22;3.85;;;35.20;36.50;;;;;;4943167;29;20024;-91
2023/09/28 10:06:51;;;;;;;9.55;4.65;;;35.50;36.30;;;;;;4940398;29;20032;-90
2023/09/28 10:09:18;;;;;;;5.53;4.05;;;36.10;35.90;;;;;;4926488;29;20024;-88
2023/09/28 10:11:49;;;;;;;7.88;3.88;;;35.40;35.50;;;;;;4943671;29;20038;-89
2023/09/28 10:14:21;;;;;;;5.25;4.18;;;34.10;36.50;;;;;;4944349;29;20039;-87
2023/09/28 10:16:53;;;;;;;8.00;3.95;;;;;;;;;;4942143;29;20119;-89
2023/09/28 10:19:21;;;;;;;7.55;4.50;;;;;;;;;;4925690;29;20485;-88
2023/09/28 10:21:47;;;;;;;9.82;6.80;;;32.50;38.30;;;;;;4925837;29;20054;-90
2023/09/28 10:24:15;;;;;;;9.00;4.18;;;28.60;42.70;;;;;;4944908;29;20020;-91
2023/09/28 10:27:09;;;;;;;15.45;7.32;;;27.60;43.80;;;;;;4966161;29;20166;-90
2023/09/28 10:29:36;;;;;;;5.35;3.75;;;27.00;44.90;;;;;;4960991;28;20130;-90
2023/09/28 10:32:30;;;;;;;6.85;4.22;;;26.40;45.80;;;;;;4924993;29;20035;-91
2023/09/28 10:35:24;;;;;;;8.73;4.53;;;25.70;47.20;;;;;;4959865;29;20026;-90
2023/09/28 10:38:20;;;;;;;7.32;4.68;;;25.20;48.10;;;;;;4941056;28;20036;-88
2023/09/28 10:41:05;;;;;;;7.30;4.37;;;24.70;49.10;;;;;;4962108;29;20061;-91
2023/09/28 10:43:42;;;;;;;7.45;4.00;;;;;;;;;;4965087;28;20272;-90
2023/09/28 10:46:09;;;;;;;8.10;4.30;;;24.10;49.60;;;;;;4945795;29;20039;-91
2023/09/28 10:48:47;;;;;;;10.90;5.40;;;24.00;51.00;;;;;;4973584;29;20019;-91
2023/09/28 10:51:18;;;;;;;8.32;5.10;;;23.90;51.70;;;;;;4969085;28;20042;-91
2023/09/28 10:53:45;;;;;;;15.45;6.45;;;23.90;52.00;;;;;;4954178;29;20027;-90
2023/09/28 10:56:12;;;;;;;9.73;4.57;;;23.90;51.90;;;;;;4959560;29;20094;-87
2023/09/28 10:58:39;;;;;;;9.27;5.20;;;23.80;51.00;;;;;;4958862;29;20027;-88
2023/09/28 11:01:06;;;;;;;10.63;4.47;;;23.60;51.70;;;;;;4954667;29;20074;-90
2023/09/28 11:03:36;;;;;;;7.32;3.50;;;23.40;51.60;;;;;;4940477;29;20066;-90
2023/09/28 11:06:03;;;;;;;11.40;5.10;;;23.30;51.30;;;;;;4957195;29;20027;-90
2023/09/28 11:08:30;;;;;;;7.40;5.20;;;23.10;51.90;;;;;;4958388;28;20015;-90
2023/09/28 11:11:01;;;;;;;;;;;23.10;52.70;;;;;;4941006;29;20058;-90
2023/09/28 11:13:29;;;;;;;10.82;5.18;;;23.10;52.00;;;;;;4940177;29;20280;-90
2023/09/28 11:15:55;;;;;;;7.13;4.93;;;23.10;52.80;;;;;;4956082;28;20118;-90
2023/09/28 11:18:23;;;;;;;5.10;4.43;;;23.00;52.90;;;;;;4939956;29;20031;-89
2023/09/28 11:20:49;;;;;;;7.20;4.90;;;23.00;53.20;;;;;;4940332;29;20496;-88
2023/09/28 11:23:15;;;;;;;12.02;5.35;;;22.90;53.60;;;;;;4958159;29;20027;-90
2023/09/28 11:25:44;;;;;;;19.65;7.80;;;22.90;54.00;;;;;;4960559;29;20031;-90
2023/09/28 11:28:11;;;;;;;19.85;5.68;;;23.00;54.40;;;;;;4958229;29;20019;-89
2023/09/28 11:30:37;;;;;;;14.98;5.35;;;23.00;54.10;;;;;;4944834;29;20094;-91
2023/09/28 11:33:05;;;;;;;8.68;4.43;;;22.90;53.80;;;;;;4959423;28;20023;-90
2023/09/28 11:35:31;;;;;;;;;;;22.90;53.90;;;;;;4972955;28;20533;-89
2023/09/28 11:38:03;;;;;;;11.77;5.43;;;22.90;53.40;;;;;;4955912;29;20391;-89
2023/09/28 11:40:30;;;;;;;7.80;4.72;;;22.90;54.10;;;;;;4956895;29;20198;-90
2023/09/28 11:43:00;;;;;;;13.13;5.68;;;22.90;53.90;;;;;;4954394;29;20038;-88
2023/09/28 11:45:30;;;;;;;18.40;5.40;;;22.90;53.90;;;;;;4955979;29;20066;-88
2023/09/28 11:47:57;;;;;;;21.67;6.85;;;22.90;53.60;;;;;;4955801;29;20034;-89
2023/09/28 11:50:27;;;;;;;15.32;6.38;;;22.90;53.60;;;;;;4926614;29;20429;-89
2023/09/28 11:52:53;;;;;;;6.93;4.30;;;22.90;53.50;;;;;;4956907;29;20080;-90
2023/09/28 11:55:19;;;;;;;12.18;5.28;;;22.80;53.50;;;;;;4939044;29;20159;-90
2023/09/28 11:57:46;;;;;;;7.57;5.00;;;22.80;53.80;;;;;;4961817;28;20031;-89
2023/09/28 12:00:21;;;;;;;22.42;9.38;;;22.80;54.10;;;;;;4962580;28;20027;-89
2023/09/28 12:02:47;;;;;;;7.88;5.20;;;22.80;54.60;;;;;;4926379;29;20031;-90
2023/09/28 12:05:17;;;;;;;23.33;8.30;;;22.70;54.30;;;;;;4939128;29;20054;-90
2023/09/28 12:07:43;;;;;;;10.88;4.82;;;22.70;54.50;;;;;;4955075;28;20075;-89
2023/09/28 12:10:11;;;;;;;174.88;46.70;;;22.70;54.40;;;;;;4938270;29;20059;-90
2023/09/28 12:12:38;;;;;;;6.65;4.50;;;22.70;55.10;;;;;;4938775;29;20046;-89
2023/09/28 12:15:14;;;;;;;23.33;7.68;;;22.70;55.10;;;;;;4939723;29;20104;-90
2023/09/28 12:17:41;;;;;;;51.03;12.65;;;22.70;55.40;;;;;;4958952;29;20039;-91
2023/09/28 12:20:09;;;;;;;10.48;5.28;;;22.70;55.30;;;;;;4941917;29;20016;-88
2023/09/28 12:22:38;;;;;;;12.57;5.53;;;22.80;55.10;;;;;;4953231;29;20066;-89
2023/09/28 12:25:05;;;;;;;10.93;5.63;;;22.70;55.10;;;;;;4956097;28;20011;-90
2023/09/28 12:27:34;;;;;;;55.92;11.60;;;22.80;55.00;;;;;;4956345;29;20090;-89
2023/09/28 12:30:00;;;;;;;13.02;6.40;;;22.80;55.30;;;;;;4942349;29;20067;-88
2023/09/28 12:32:30;;;;;;;9.52;4.78;;;22.80;55.10;;;;;;4936837;29;20031;-89
2023/09/28 12:34:57;;;;;;;24.20;7.45;;;22.90;54.90;;;;;;4975369;28;20396;-90
2023/09/28 12:37:22;;;;;;;11.48;6.10;;;22.80;55.40;;;;;;4978113;28;20035;-87
2023/09/28 12:39:50;;;;;;;38.15;7.97;;;22.80;54.90;;;;;;4945923;28;20077;-89
2023/09/28 12:42:16;;;;;;;16.15;7.68;;;22.80;55.00;;;;;;4949698;29;20038;-86